createdAt,value
2022-10-13T00:01:21.774Z,57.59
2022-10-13T00:03:55.818Z,58.69
2022-10-13T00:06:27.531Z,59.76
2022-10-13T00:09:01.201Z,64.62
2022-10-13T00:11:35.887Z,67.98
2022-10-13T00:14:09.098Z,62.55
2022-10-13T00:16:38.801Z,57.75
2022-10-13T00:19:12.894Z,56.30
2022-10-13T00:21:48.083Z,57.53
2022-10-13T00:24:18.253Z,58.52
2022-10-13T00:26:53.332Z,59.05
2022-10-13T00:29:23.299Z,60.49
2022-10-13T00:31:56.429Z,65.47
2022-10-13T00:34:26.406Z,67.09
2022-10-13T00:36:55.788Z,63.12
2022-10-13T00:39:25.802Z,59.74
2022-10-13T00:42:03.131Z,54.87
2022-10-13T00:45:08.308Z,54.68
2022-10-13T00:47:48.936Z,56.48
2022-10-13T00:50:23.816Z,58.15
2022-10-13T00:53:01.991Z,59.07
2022-10-13T00:55:37.815Z,59.96
2022-10-13T00:58:11.408Z,60.38
2022-10-13T01:00:53.768Z,65.01
2022-10-13T01:03:23.095Z,68.86
2022-10-13T01:05:59.202Z,63.12
2022-10-13T01:08:32.801Z,58.31
2022-10-13T01:11:49.031Z,56.80
2022-10-13T01:14:54.871Z,57.01
2022-10-13T01:17:33.937Z,58.70
2022-10-13T01:20:25.896Z,59.86
2022-10-13T01:23:15.712Z,64.41
2022-10-13T01:26:22.404Z,68.26
2022-10-13T01:29:06.758Z,63.58
2022-10-13T01:31:49.089Z,59.19
2022-10-13T01:34:37.415Z,56.00
2022-10-13T01:37:33.268Z,56.55
2022-10-13T01:40:12.982Z,57.82
2022-10-13T01:43:03.783Z,58.88
2022-10-13T01:45:58.121Z,59.37
2022-10-13T01:48:46.040Z,65.18
2022-10-13T01:51:20.780Z,68.09
2022-10-13T01:53:56.073Z,63.74
2022-10-13T01:56:29.897Z,61.24
2022-10-13T01:59:09.135Z,58.48
2022-10-13T02:01:57.970Z,58.12
2022-10-13T02:04:48.172Z,58.76
2022-10-13T02:07:30.827Z,59.97
2022-10-13T02:10:04.042Z,64.97
2022-10-13T02:12:52.159Z,66.78
2022-10-13T02:15:34.114Z,65.12
2022-10-13T02:18:05.588Z,61.38
2022-10-13T02:20:36.962Z,58.16
2022-10-13T02:23:12.676Z,56.84
2022-10-13T02:25:44.161Z,56.94
2022-10-13T02:28:18.920Z,58.36
2022-10-13T02:30:50.474Z,58.86
2022-10-13T02:33:21.433Z,60.33
2022-10-13T02:35:53.554Z,64.48
2022-10-13T02:38:29.972Z,67.66
2022-10-13T02:41:03.169Z,65.46
2022-10-13T02:43:38.080Z,62.16
2022-10-13T02:46:07.737Z,60.54
2022-10-13T02:48:39.716Z,56.97
2022-10-13T02:51:10.140Z,56.19
2022-10-13T02:53:43.333Z,57.45
2022-10-13T02:56:14.396Z,58.26
2022-10-13T02:58:47.866Z,58.86
2022-10-13T03:01:18.629Z,60.05
2022-10-13T03:04:12.336Z,63.82
2022-10-13T03:06:45.251Z,66.09
2022-10-13T03:09:15.917Z,63.61
2022-10-13T03:11:47.366Z,63.85
2022-10-13T03:14:23.282Z,61.48
2022-10-13T03:17:00.784Z,56.64
2022-10-13T03:19:32.075Z,55.63
2022-10-13T03:22:02.530Z,56.59
2022-10-13T03:24:34.454Z,57.85
2022-10-13T03:27:04.612Z,59.51
2022-10-13T03:29:38.045Z,60.35
2022-10-13T03:32:11.305Z,64.54
2022-10-13T03:34:42.239Z,67.72
2022-10-13T03:37:15.996Z,66.70
2022-10-13T03:39:54.933Z,61.65
2022-10-13T03:42:24.691Z,60.22
2022-10-13T03:44:58.219Z,55.99
2022-10-13T03:47:29.095Z,56.11
2022-10-13T03:50:02.625Z,57.11
2022-10-13T03:52:33.911Z,58.31
2022-10-13T03:55:05.398Z,58.44
2022-10-13T03:57:34.202Z,58.73
2022-10-13T04:00:05.226Z,59.87
2022-10-13T04:02:42.285Z,66.09
2022-10-13T04:05:12.437Z,68.42
2022-10-13T04:07:43.737Z,63.21
2022-10-13T04:10:21.661Z,57.95
2022-10-13T04:12:52.518Z,56.65
2022-10-13T04:15:22.057Z,57.80
2022-10-13T04:17:55.231Z,59.43
2022-10-13T04:20:25.938Z,59.85
2022-10-13T04:22:58.943Z,63.51
2022-10-13T04:25:31.458Z,67.66
2022-10-13T04:28:02.289Z,67.03
2022-10-13T04:30:35.106Z,61.60
2022-10-13T04:33:06.311Z,57.21
2022-10-13T04:35:50.349Z,56.70
2022-10-13T04:38:23.551Z,57.60
2022-10-13T04:40:57.232Z,58.87
2022-10-13T04:43:31.593Z,59.45
2022-10-13T04:46:08.406Z,64.30
2022-10-13T04:48:41.954Z,65.19
2022-10-13T04:51:20.689Z,65.18
2022-10-13T04:53:56.762Z,62.66
2022-10-13T04:56:30.909Z,61.79
2022-10-13T04:59:13.657Z,60.93
2022-10-13T05:01:51.145Z,57.54
2022-10-13T05:04:26.547Z,57.12
2022-10-13T05:07:18.324Z,58.15
2022-10-13T05:09:54.558Z,58.65
2022-10-13T05:12:26.151Z,59.74
2022-10-13T05:14:55.189Z,64.51
2022-10-13T05:17:23.562Z,67.62
2022-10-13T05:19:51.943Z,62.79
2022-10-13T05:22:20.902Z,58.26
2022-10-13T05:24:50.866Z,56.36
2022-10-13T05:27:20.560Z,57.31
2022-10-13T05:29:51.843Z,58.54
2022-10-13T05:32:23.582Z,59.12
2022-10-13T05:34:56.062Z,60.12
2022-10-13T05:37:24.581Z,65.23
2022-10-13T05:39:56.305Z,67.61
2022-10-13T05:42:25.012Z,64.61
2022-10-13T05:44:53.392Z,63.06
2022-10-13T05:47:23.316Z,59.92
2022-10-13T05:49:55.928Z,54.70
2022-10-13T05:52:25.680Z,54.97
2022-10-13T05:55:00.882Z,56.42
2022-10-13T05:57:41.283Z,57.60
2022-10-13T06:00:13.576Z,58.60
2022-10-13T06:02:49.960Z,60.07
2022-10-13T06:05:20.871Z,66.03
2022-10-13T06:07:53.118Z,68.00
2022-10-13T06:10:25.758Z,62.50
2022-10-13T06:12:57.371Z,57.15
2022-10-13T06:15:28.572Z,55.99
2022-10-13T06:17:59.261Z,57.16
2022-10-13T06:20:30.194Z,58.75
2022-10-13T06:22:58.856Z,59.54
2022-10-13T06:25:27.119Z,65.30
2022-10-13T06:28:00.209Z,66.35
2022-10-13T06:30:31.950Z,61.55
2022-10-13T06:33:00.684Z,57.63
2022-10-13T06:35:29.163Z,56.99
2022-10-13T06:37:58.458Z,58.00
2022-10-13T06:40:26.808Z,59.03
2022-10-13T06:42:55.063Z,60.10
2022-10-13T06:45:26.266Z,63.90
2022-10-13T06:47:56.424Z,66.96
2022-10-13T06:50:26.198Z,64.24
2022-10-13T06:52:56.479Z,62.57
2022-10-13T06:55:24.775Z,61.70
2022-10-13T06:57:55.236Z,60.91
2022-10-13T07:00:24.011Z,57.68
2022-10-13T07:02:53.006Z,56.94
2022-10-13T07:05:21.296Z,57.48
2022-10-13T07:07:54.260Z,58.49
2022-10-13T07:10:25.180Z,59.15
2022-10-13T07:12:53.404Z,62.67
2022-10-13T07:15:24.599Z,67.64
2022-10-13T07:17:54.197Z,65.11
2022-10-13T07:20:24.840Z,61.60
2022-10-13T07:22:54.920Z,57.15
2022-10-13T07:25:23.885Z,55.72
2022-10-13T07:27:55.011Z,56.75
2022-10-13T07:30:23.376Z,57.63
2022-10-13T07:32:52.148Z,59.08
2022-10-13T07:35:23.194Z,59.58
2022-10-13T07:37:57.488Z,63.74
2022-10-13T07:40:27.051Z,67.56
2022-10-13T07:42:57.078Z,64.14
2022-10-13T07:45:25.619Z,61.10
2022-10-13T07:47:56.522Z,58.52
2022-10-13T07:50:27.429Z,57.02
2022-10-13T07:52:55.623Z,57.42
2022-10-13T07:55:25.123Z,58.24
2022-10-13T07:57:55.700Z,59.34
2022-10-13T08:00:23.719Z,62.88
2022-10-13T08:02:51.889Z,64.08
2022-10-13T08:05:20.196Z,63.44
2022-10-13T08:07:48.563Z,61.82
2022-10-13T08:10:21.144Z,58.58
2022-10-13T08:12:49.892Z,57.36
2022-10-13T08:15:18.811Z,57.79
2022-10-13T08:17:47.080Z,58.85
2022-10-13T08:20:15.230Z,59.79
2022-10-13T08:22:43.256Z,61.02
2022-10-13T08:25:11.492Z,63.95
2022-10-13T08:27:50.533Z,65.48
2022-10-13T08:30:20.377Z,62.70
2022-10-13T08:32:49.091Z,58.00
2022-10-13T08:35:17.367Z,55.17
2022-10-13T08:37:45.523Z,55.53
2022-10-13T08:40:21.066Z,55.91
2022-10-13T08:42:50.219Z,57.34
2022-10-13T08:45:46.154Z,58.60
2022-10-13T08:48:38.747Z,58.46
2022-10-13T08:51:08.865Z,59.88
2022-10-13T08:53:42.006Z,61.39
2022-10-13T08:56:20.585Z,61.77
2022-10-13T08:58:51.747Z,61.45
2022-10-13T09:01:21.299Z,63.11
2022-10-13T09:04:15.655Z,63.57
2022-10-13T09:06:54.262Z,56.80
2022-10-13T09:09:25.561Z,54.47
2022-10-13T09:11:54.866Z,54.52
2022-10-13T09:14:29.895Z,55.42
2022-10-13T09:17:20.630Z,56.14
2022-10-13T09:20:21.279Z,57.16
2022-10-13T09:23:23.043Z,58.45
2022-10-13T09:25:53.310Z,59.01
2022-10-13T09:28:29.241Z,60.18
2022-10-13T09:31:16.242Z,61.43
2022-10-13T09:33:46.002Z,63.12
2022-10-13T09:36:16.307Z,63.67
2022-10-13T09:39:15.320Z,58.66
2022-10-13T09:41:46.135Z,56.83
2022-10-13T09:44:19.015Z,57.17
2022-10-13T09:46:55.522Z,57.69
2022-10-13T09:49:41.626Z,59.05
2022-10-13T09:52:12.525Z,58.31
2022-10-13T09:54:41.231Z,60.26
2022-10-13T09:57:30.734Z,60.39
2022-10-13T10:00:14.955Z,61.08
2022-10-13T10:03:02.186Z,61.14
2022-10-13T10:05:47.816Z,61.38
2022-10-13T10:08:28.941Z,60.62
2022-10-13T10:11:18.109Z,61.14
2022-10-13T10:13:47.383Z,60.75
2022-10-13T10:16:19.706Z,61.29
2022-10-13T10:19:15.634Z,61.63
2022-10-13T10:22:06.235Z,61.31
2022-10-13T10:24:59.510Z,61.73
2022-10-13T10:27:39.996Z,61.25
2022-10-13T10:30:20.529Z,61.76
2022-10-13T10:33:07.390Z,61.15
2022-10-13T10:35:56.792Z,61.22
2022-10-13T10:38:49.006Z,60.62
2022-10-13T10:41:36.719Z,61.13
2022-10-13T10:44:16.371Z,60.28
2022-10-13T10:46:51.191Z,60.44
2022-10-13T10:49:40.093Z,60.13
2022-10-13T10:52:19.430Z,59.63
2022-10-13T10:55:24.424Z,59.84
2022-10-13T10:58:32.373Z,59.96
2022-10-13T11:01:11.676Z,59.74
2022-10-13T11:04:13.188Z,59.38
2022-10-13T11:06:43.602Z,59.43
2022-10-13T11:09:14.849Z,58.75
2022-10-13T11:11:43.902Z,58.93
2022-10-13T11:14:30.501Z,58.54
2022-10-13T11:17:11.053Z,59.02
2022-10-13T11:19:45.255Z,59.11
2022-10-13T11:22:24.246Z,59.12
2022-10-13T11:25:15.853Z,58.66
2022-10-13T11:27:45.294Z,58.25
2022-10-13T11:30:42.174Z,58.27
2022-10-13T11:33:39.265Z,58.24
2022-10-13T11:36:40.709Z,57.30
2022-10-13T11:39:28.668Z,57.33
2022-10-13T11:42:16.650Z,57.32
2022-10-13T11:45:12.002Z,56.75
2022-10-13T11:48:01.241Z,56.78
2022-10-13T11:50:42.310Z,56.73
2022-10-13T11:53:14.912Z,55.90
2022-10-13T11:55:54.468Z,55.99
2022-10-13T11:58:26.457Z,55.42
2022-10-13T12:01:12.651Z,55.16
2022-10-13T12:03:44.515Z,55.11
2022-10-13T12:06:18.248Z,55.15
2022-10-13T12:08:51.290Z,54.81
2022-10-13T12:11:35.737Z,54.43
2022-10-13T12:14:09.929Z,55.07
2022-10-13T12:16:53.191Z,54.35
2022-10-13T12:19:26.014Z,54.42
2022-10-13T12:22:00.011Z,54.40
2022-10-13T12:24:31.893Z,53.43
2022-10-13T12:27:11.402Z,54.02
2022-10-13T12:29:43.995Z,53.76
2022-10-13T12:32:27.426Z,51.97
2022-10-13T12:34:56.630Z,51.72
2022-10-13T12:37:34.651Z,52.48
2022-10-13T12:40:06.354Z,52.12
2022-10-13T12:42:38.093Z,52.13
2022-10-13T12:45:07.487Z,52.29
2022-10-13T12:47:39.628Z,52.72
2022-10-13T12:50:40.799Z,52.76
2022-10-13T12:53:09.086Z,52.74
2022-10-13T12:55:48.857Z,52.12
2022-10-13T12:58:26.525Z,52.35
2022-10-13T13:01:35.849Z,51.94
2022-10-13T13:04:23.572Z,51.75
2022-10-13T13:07:00.950Z,51.70
2022-10-13T13:09:35.385Z,51.73
2022-10-13T13:12:14.000Z,51.50
2022-10-13T13:14:57.489Z,51.59
2022-10-13T13:17:56.651Z,51.61
2022-10-13T13:20:38.972Z,52.48
2022-10-13T13:23:11.507Z,52.60
2022-10-13T13:25:43.745Z,52.59
2022-10-13T13:28:16.829Z,53.11
2022-10-13T13:30:47.628Z,53.26
2022-10-13T13:33:19.399Z,52.83
2022-10-13T13:35:49.906Z,52.93
2022-10-13T13:38:20.535Z,52.55
2022-10-13T13:40:49.919Z,52.29
2022-10-13T13:43:22.481Z,52.14
2022-10-13T13:45:52.838Z,52.21
2022-10-13T13:48:27.331Z,51.77
2022-10-13T13:50:57.419Z,52.04
2022-10-13T13:53:30.708Z,52.27
2022-10-13T13:56:04.246Z,52.01
2022-10-13T13:58:39.193Z,51.86
2022-10-13T14:01:10.069Z,52.24
2022-10-13T14:03:41.471Z,52.21
2022-10-13T14:06:21.042Z,52.18
2022-10-13T14:08:53.976Z,52.08
2022-10-13T14:11:32.975Z,52.31
2022-10-13T14:14:04.450Z,52.10
2022-10-13T14:16:42.995Z,52.07
2022-10-13T14:19:13.486Z,52.11
2022-10-13T14:21:53.597Z,52.42
2022-10-13T14:24:40.577Z,52.53
2022-10-13T14:27:20.616Z,52.53
2022-10-13T14:29:52.278Z,52.76
2022-10-13T14:32:52.265Z,52.81
2022-10-13T14:35:45.614Z,52.74
2022-10-13T14:38:36.960Z,52.48
2022-10-13T14:41:39.230Z,53.05
2022-10-13T14:44:27.950Z,52.77
2022-10-13T14:47:00.563Z,52.95
2022-10-13T14:49:29.883Z,53.32
2022-10-13T14:52:07.541Z,53.54
2022-10-13T14:54:44.700Z,53.80
2022-10-13T14:57:16.870Z,53.97
2022-10-13T14:59:46.947Z,54.34
2022-10-13T15:02:15.661Z,54.71
2022-10-13T15:04:54.685Z,55.21
2022-10-13T15:07:24.056Z,55.27
2022-10-13T15:10:04.289Z,55.67
2022-10-13T15:12:34.435Z,55.90
2022-10-13T15:15:03.542Z,56.55
2022-10-13T15:17:34.851Z,56.93
2022-10-13T15:20:08.749Z,56.85
2022-10-13T15:22:41.373Z,57.08
2022-10-13T15:25:23.969Z,57.34
2022-10-13T15:28:10.038Z,57.56
2022-10-13T15:30:42.450Z,57.87
2022-10-13T15:33:16.431Z,58.06
2022-10-13T15:35:51.089Z,58.39
2022-10-13T15:38:21.384Z,58.49
2022-10-13T15:40:50.802Z,58.60
2022-10-13T15:43:19.643Z,58.71
2022-10-13T15:45:57.244Z,58.84
2022-10-13T15:48:26.930Z,59.08
2022-10-13T15:50:55.969Z,59.53
2022-10-13T15:53:25.680Z,60.20
2022-10-13T15:55:54.929Z,60.42
2022-10-13T15:58:24.887Z,60.81
2022-10-13T16:00:53.246Z,61.25
2022-10-13T16:03:21.980Z,61.58
2022-10-13T16:05:51.528Z,63.65
2022-10-13T16:08:20.211Z,64.56
2022-10-13T16:10:51.232Z,64.73
2022-10-13T16:13:21.764Z,65.37
2022-10-13T16:16:01.312Z,63.15
2022-10-13T16:18:34.933Z,62.24
2022-10-13T16:21:18.760Z,61.50
2022-10-13T16:23:49.661Z,62.84
2022-10-13T16:26:20.278Z,63.33
2022-10-13T16:28:50.119Z,61.34
2022-10-13T16:31:21.715Z,57.16
2022-10-13T16:33:52.065Z,55.50
2022-10-13T16:36:24.317Z,55.92
2022-10-13T16:38:57.143Z,56.57
2022-10-13T16:41:29.094Z,57.40
2022-10-13T16:43:58.418Z,58.22
2022-10-13T16:46:27.257Z,58.78
2022-10-13T16:48:55.649Z,59.58
2022-10-13T16:51:27.732Z,60.09
2022-10-13T16:54:04.199Z,60.61
2022-10-13T16:56:33.774Z,62.87
2022-10-13T16:59:06.030Z,68.00
2022-10-13T17:01:36.705Z,64.21
2022-10-13T17:04:06.787Z,58.74
2022-10-13T17:06:38.818Z,56.30
2022-10-13T17:09:11.247Z,56.64
2022-10-13T17:11:44.862Z,57.56
2022-10-13T17:14:15.064Z,58.61
2022-10-13T17:16:45.914Z,59.32
2022-10-13T17:19:17.985Z,59.98
2022-10-13T17:21:48.078Z,60.71
2022-10-13T17:24:20.557Z,63.67
2022-10-13T17:26:53.176Z,67.14
2022-10-13T17:29:29.344Z,63.60
2022-10-13T17:32:02.963Z,58.68
2022-10-13T17:34:33.013Z,57.28
2022-10-13T17:37:04.801Z,58.12
2022-10-13T17:39:36.175Z,58.85
2022-10-13T17:42:06.604Z,60.01
2022-10-13T17:44:39.244Z,60.61
2022-10-13T17:47:11.143Z,64.24
2022-10-13T17:49:40.894Z,65.19
2022-10-13T17:52:10.574Z,63.81
2022-10-13T17:54:41.850Z,62.68
2022-10-13T17:57:12.019Z,61.52
2022-10-13T17:59:41.497Z,60.90
2022-10-13T18:02:11.179Z,60.81
2022-10-13T18:04:43.697Z,57.34
2022-10-13T18:07:14.591Z,56.43
2022-10-13T18:09:47.386Z,57.52
2022-10-13T18:12:16.932Z,58.66
2022-10-13T18:14:47.326Z,59.07
2022-10-13T18:17:19.613Z,60.09
2022-10-13T18:19:51.122Z,63.17
2022-10-13T18:22:21.275Z,65.54
2022-10-13T18:24:56.028Z,64.53
2022-10-13T18:27:31.309Z,63.15
2022-10-13T18:30:00.686Z,61.85
2022-10-13T18:32:32.544Z,60.91
2022-10-13T18:35:03.279Z,60.53
2022-10-13T18:37:35.703Z,60.34
2022-10-13T18:40:05.582Z,60.24
2022-10-13T18:42:34.286Z,60.65
2022-10-13T18:45:03.925Z,60.94
2022-10-13T18:47:33.523Z,60.50
2022-10-13T18:50:03.420Z,59.85
2022-10-13T18:52:32.266Z,58.56
2022-10-13T18:55:01.009Z,58.13
2022-10-13T18:57:29.871Z,58.77
2022-10-13T19:00:01.062Z,59.43
2022-10-13T19:02:32.358Z,60.75
2022-10-13T19:05:01.313Z,63.88
2022-10-13T19:07:30.511Z,66.08
2022-10-13T19:10:00.150Z,65.77
2022-10-13T19:12:29.152Z,65.05
2022-10-13T19:14:58.469Z,64.88
2022-10-13T19:17:27.401Z,64.85
2022-10-13T19:19:56.684Z,65.28
2022-10-13T19:22:26.439Z,65.00
2022-10-13T19:24:56.042Z,64.97
2022-10-13T19:27:25.277Z,63.24
2022-10-13T19:29:54.092Z,62.00
2022-10-13T19:32:23.235Z,61.09
2022-10-13T19:34:51.524Z,60.44
2022-10-13T19:37:20.182Z,57.94
2022-10-13T19:39:50.630Z,57.15
2022-10-13T19:42:19.688Z,57.37
2022-10-13T19:44:48.265Z,59.25
2022-10-13T19:47:16.664Z,64.70
2022-10-13T19:49:53.947Z,66.91
2022-10-13T19:52:33.396Z,62.57
2022-10-13T19:55:10.973Z,60.03
2022-10-13T19:57:47.635Z,57.86
2022-10-13T20:00:24.643Z,58.01
2022-10-13T20:03:01.630Z,58.69
2022-10-13T20:05:39.571Z,59.63
2022-10-13T20:08:16.646Z,64.99
2022-10-13T20:10:52.046Z,65.67
2022-10-13T20:13:29.993Z,61.61
2022-10-13T20:16:15.047Z,57.67
2022-10-13T20:19:03.498Z,57.27
2022-10-13T20:21:43.171Z,58.15
2022-10-13T20:24:24.576Z,59.48
2022-10-13T20:27:03.228Z,60.09
2022-10-13T20:29:41.235Z,65.01
2022-10-13T20:32:20.933Z,65.84
2022-10-13T20:34:58.110Z,62.84
2022-10-13T20:37:37.311Z,60.22
2022-10-13T20:40:10.745Z,57.76
2022-10-13T20:42:44.264Z,56.61
2022-10-13T20:45:22.014Z,57.49
2022-10-13T20:47:51.620Z,58.86
2022-10-13T20:50:19.894Z,59.78
2022-10-13T20:52:48.429Z,64.19
2022-10-13T20:55:16.742Z,67.01
2022-10-13T20:57:45.773Z,63.54
2022-10-13T21:00:14.524Z,59.77
2022-10-13T21:02:42.937Z,56.39
2022-10-13T21:05:11.361Z,56.02
2022-10-13T21:07:42.543Z,57.74
2022-10-13T21:10:11.801Z,58.55
2022-10-13T21:12:41.398Z,59.72
2022-10-13T21:15:10.778Z,63.45
2022-10-13T21:17:42.344Z,67.39
2022-10-13T21:20:11.750Z,63.50
2022-10-13T21:22:40.509Z,60.15
2022-10-13T22:33:32.102Z,61.87
2022-10-13T22:36:00.193Z,57.43
2022-10-13T22:38:28.284Z,56.88
2022-10-13T22:41:01.703Z,58.16
2022-10-13T22:43:29.739Z,59.22
2022-10-13T22:45:59.003Z,60.27
2022-10-13T22:48:27.173Z,64.05
2022-10-13T22:50:55.262Z,64.91
2022-10-13T22:53:23.736Z,62.03
2022-10-13T22:55:51.798Z,59.79
2022-10-13T22:58:19.779Z,56.39
2022-10-13T23:00:49.010Z,55.87
2022-10-13T23:03:36.810Z,57.15
2022-10-13T23:06:06.823Z,58.80
2022-10-13T23:08:35.153Z,59.59
2022-10-13T23:11:03.318Z,64.16
2022-10-13T23:13:31.486Z,65.63
2022-10-13T23:16:09.369Z,62.04
2022-10-13T23:18:40.949Z,57.88
2022-10-13T23:21:16.412Z,57.16
2022-10-13T23:23:48.035Z,58.56
2022-10-13T23:26:17.801Z,60.05
2022-10-13T23:28:46.660Z,64.96
2022-10-13T23:31:17.443Z,65.89
2022-10-13T23:33:46.071Z,62.04
2022-10-13T23:36:17.994Z,57.58
2022-10-13T23:38:54.853Z,56.43
2022-10-13T23:41:24.607Z,57.02
2022-10-13T23:43:53.824Z,58.56
2022-10-13T23:46:22.173Z,64.72
2022-10-13T23:48:50.809Z,65.67
2022-10-13T23:51:23.332Z,61.90
2022-10-13T23:53:53.273Z,59.89
2022-10-13T23:56:22.096Z,57.38
2022-10-13T23:58:50.757Z,56.75
